Time;durP1;ratioP1;P1;durP2;ratioP2;P2;SDS_P1;SDS_P2;PMS_P1;PMS_P2;Temp;Humidity;BMP_temperature;BMP_pressure;BME280_temperature;BME280_humidity;BME280_pressure;Samples;Min_cycle;Max_cycle;Signal;HPM_P1;HPM_P2
2020/12/28 00:00:24;;;;;;;0.00;0.00;;;4.30;99.90;;;;;;5034359;28;20037;-85
2020/12/28 00:02:49;;;;;;;0.00;0.00;;;4.30;99.90;;;;;;5064747;28;20045;-85
2020/12/28 00:05:15;;;;;;;0.10;0.00;;;4.20;99.90;;;;;;5069913;28;20468;-84
2020/12/28 00:07:41;;;;;;;0.15;0.00;;;4.30;99.90;;;;;;5054007;28;20075;-84
2020/12/28 00:10:11;;;;;;;0.00;0.00;;;4.30;99.90;;;;;;5070615;28;20246;-85
2020/12/28 00:12:47;;;;;;;0.00;0.00;;;4.30;99.90;;;;;;5070950;28;20071;-85
2020/12/28 00:15:25;;;;;;;0.00;0.00;;;4.30;99.90;;;;;;5070658;28;20052;-84
2020/12/28 00:17:56;;;;;;;0.00;0.00;;;4.30;99.90;;;;;;5070636;28;20047;-85
2020/12/28 00:20:26;;;;;;;0.00;0.00;;;4.30;99.90;;;;;;5070300;28;20059;-85
2020/12/28 00:22:52;;;;;;;0.00;0.00;;;4.20;99.90;;;;;;5070345;28;20059;-85
2020/12/28 00:25:20;;;;;;;0.00;0.00;;;4.30;99.90;;;;;;5070652;28;20067;-85
2020/12/28 00:27:47;;;;;;;0.00;0.00;;;4.20;99.90;;;;;;5070228;28;20060;-85
2020/12/28 00:30:12;;;;;;;0.00;0.00;;;4.30;99.90;;;;;;5070173;28;20075;-85
2020/12/28 00:32:38;;;;;;;0.00;0.00;;;4.30;99.90;;;;;;5070231;28;20086;-85
2020/12/28 00:35:08;;;;;;;0.00;0.00;;;4.30;99.90;;;;;;5070239;28;20032;-85
2020/12/28 00:37:34;;;;;;;2.28;2.17;;;4.30;99.90;;;;;;5070212;28;20082;-85
2020/12/28 00:40:00;;;;;;;0.00;0.00;;;4.30;99.90;;;;;;5070053;28;20075;-85
2020/12/28 00:42:26;;;;;;;0.00;0.00;;;4.30;99.90;;;;;;5053309;28;20051;-85
2020/12/28 00:44:51;;;;;;;0.00;0.00;;;4.30;99.90;;;;;;5053361;28;20033;-85
2020/12/28 00:47:17;;;;;;;0.00;0.00;;;4.30;99.90;;;;;;5070108;28;20049;-85
2020/12/28 00:49:43;;;;;;;0.00;0.00;;;4.30;99.90;;;;;;5069886;28;20040;-85
2020/12/28 00:52:09;;;;;;;0.00;0.00;;;4.30;99.90;;;;;;5069609;28;20043;-85
2020/12/28 00:54:35;;;;;;;0.00;0.00;;;4.30;99.90;;;;;;5052947;28;20032;-85
2020/12/28 00:57:01;;;;;;;0.00;0.00;;;4.30;99.90;;;;;;5053089;28;20119;-85
2020/12/28 00:59:27;;;;;;;0.00;0.00;;;4.30;99.90;;;;;;5069373;28;20032;-85
2020/12/28 01:01:58;;;;;;;0.00;0.00;;;4.30;99.90;;;;;;5052805;28;20423;-85
2020/12/28 01:04:25;;;;;;;0.00;0.00;;;4.30;99.90;;;;;;5053024;28;20036;-85
2020/12/28 01:06:55;;;;;;;;;;;4.30;99.90;;;;;;5053661;28;20199;-85
2020/12/28 01:09:39;;;;;;;0.00;0.00;;;4.30;99.90;;;;;;5072243;28;19915;-85
2020/12/28 01:12:05;;;;;;;0.00;0.00;;;4.40;99.90;;;;;;5052944;28;20042;-86
2020/12/28 01:14:31;;;;;;;0.00;0.00;;;4.40;99.90;;;;;;5052839;28;20043;-85
2020/12/28 01:16:57;;;;;;;0.00;0.00;;;4.40;99.90;;;;;;5052616;28;20041;-86
2020/12/28 01:19:23;;;;;;;0.00;0.00;;;4.40;99.90;;;;;;5052701;28;20051;-88
2020/12/28 01:21:50;;;;;;;0.00;0.00;;;4.40;99.90;;;;;;5052963;28;20037;-85
2020/12/28 01:24:16;;;;;;;0.00;0.00;;;4.40;99.90;;;;;;5052540;28;20036;-85
2020/12/28 01:26:44;;;;;;;0.00;0.00;;;4.40;99.90;;;;;;5052817;28;20040;-85
2020/12/28 01:29:11;;;;;;;0.00;0.00;;;4.30;99.90;;;;;;5052121;28;20047;-85
2020/12/28 01:31:41;;;;;;;0.00;0.00;;;4.40;99.90;;;;;;5052802;28;20492;-86
2020/12/28 01:34:15;;;;;;;0.00;0.00;;;4.40;99.90;;;;;;5068771;28;20100;-85
2020/12/28 01:36:52;;;;;;;0.00;0.00;;;4.40;99.90;;;;;;5069148;28;20123;-86
2020/12/28 01:39:22;;;;;;;0.00;0.00;;;4.30;99.90;;;;;;5068882;28;20499;-86
2020/12/28 01:41:51;;;;;;;0.00;0.00;;;4.30;99.90;;;;;;5068976;28;20041;-85
2020/12/28 01:44:17;;;;;;;0.00;0.00;;;4.40;99.90;;;;;;5052312;28;20028;-85
2020/12/28 01:46:46;;;;;;;0.00;0.00;;;4.30;99.90;;;;;;5052491;28;20561;-85
2020/12/28 01:49:12;;;;;;;0.00;0.00;;;4.40;99.90;;;;;;5052149;28;20271;-85
2020/12/28 01:51:38;;;;;;;0.00;0.00;;;4.40;99.90;;;;;;5039630;28;20045;-85
2020/12/28 01:54:05;;;;;;;0.00;0.00;;;4.40;99.90;;;;;;5029254;28;20029;-84
2020/12/28 01:56:41;;;;;;;0.00;0.00;;;4.30;99.90;;;;;;5026815;28;20049;-85
2020/12/28 01:59:08;;;;;;;0.40;0.40;;;4.40;99.90;;;;;;5025170;28;20117;-85
2020/12/28 02:01:39;;;;;;;0.00;0.00;;;4.30;99.90;;;;;;5032031;28;20025;-87
2020/12/28 02:04:07;;;;;;;0.00;0.00;;;4.40;99.90;;;;;;5032378;28;20033;-85
2020/12/28 02:06:38;;;;;;;0.00;0.00;;;4.30;99.90;;;;;;5032822;28;20045;-86
2020/12/28 02:09:05;;;;;;;0.00;0.00;;;4.30;99.90;;;;;;5032296;28;20432;-85
2020/12/28 02:11:32;;;;;;;0.00;0.00;;;4.30;99.90;;;;;;5032374;28;20052;-86
2020/12/28 02:14:00;;;;;;;0.00;0.00;;;4.40;99.90;;;;;;5032177;28;20029;-86
2020/12/28 02:16:40;;;;;;;0.00;0.00;;;4.40;99.90;;;;;;5034051;28;20041;-85
2020/12/28 02:19:10;;;;;;;0.00;0.00;;;4.40;99.90;;;;;;5032497;28;20060;-85
2020/12/28 02:21:39;;;;;;;0.00;0.00;;;4.40;99.90;;;;;;5032442;28;20496;-86
2020/12/28 02:24:08;;;;;;;0.00;0.00;;;4.40;99.90;;;;;;5032021;28;20052;-86
2020/12/28 02:26:37;;;;;;;0.00;0.00;;;4.40;99.90;;;;;;5032318;28;20048;-85
2020/12/28 02:29:03;;;;;;;0.00;0.00;;;4.40;99.90;;;;;;5031141;28;20055;-84
2020/12/28 02:31:29;;;;;;;0.00;0.00;;;4.40;99.90;;;;;;5031519;28;20048;-85
2020/12/28 02:34:12;;;;;;;0.00;0.00;;;4.40;99.90;;;;;;5034184;28;20029;-85
2020/12/28 02:36:46;;;;;;;0.00;0.00;;;4.40;99.90;;;;;;5033141;28;20112;-85
2020/12/28 02:39:12;;;;;;;0.00;0.00;;;4.40;99.90;;;;;;5031551;28;20029;-85
2020/12/28 02:41:39;;;;;;;0.00;0.00;;;4.40;99.90;;;;;;5031840;28;20037;-86
2020/12/28 02:44:23;;;;;;;0.00;0.00;;;4.40;99.90;;;;;;5050812;28;20044;-85
2020/12/28 02:47:07;;;;;;;0.00;0.00;;;4.40;99.90;;;;;;5050778;28;20435;-85
2020/12/28 02:49:51;;;;;;;0.00;0.00;;;4.40;99.90;;;;;;5050867;28;20057;-85
2020/12/28 02:52:35;;;;;;;0.00;0.00;;;4.40;99.90;;;;;;5044722;28;20053;-85
2020/12/28 02:55:20;;;;;;;0.00;0.00;;;4.40;99.90;;;;;;5049447;28;20040;-85
2020/12/28 02:58:04;;;;;;;0.00;0.00;;;4.40;99.90;;;;;;5064666;28;20068;-85
2020/12/28 03:00:48;;;;;;;0.00;0.00;;;4.40;99.90;;;;;;5050872;28;20068;-86
2020/12/28 03:03:32;;;;;;;0.00;0.00;;;4.40;99.90;;;;;;5064621;28;20415;-85
2020/12/28 03:06:16;;;;;;;0.00;0.00;;;4.40;99.90;;;;;;5064703;28;20051;-85
2020/12/28 03:09:00;;;;;;;0.00;0.00;;;4.40;99.90;;;;;;5064517;28;20110;-85
2020/12/28 03:11:45;;;;;;;0.00;0.00;;;4.40;99.90;;;;;;5064794;28;20074;-85
2020/12/28 03:14:30;;;;;;;0.00;0.00;;;4.40;99.90;;;;;;5064629;28;20060;-85
2020/12/28 03:17:14;;;;;;;0.00;0.00;;;4.40;99.90;;;;;;5064679;28;20037;-85
2020/12/28 03:19:58;;;;;;;0.00;0.00;;;4.40;99.90;;;;;;5064276;28;20087;-85
2020/12/28 03:22:42;;;;;;;0.00;0.00;;;4.30;99.90;;;;;;5064525;28;20080;-85
2020/12/28 03:25:26;;;;;;;0.00;0.00;;;4.30;99.90;;;;;;5064494;28;20048;-85
2020/12/28 03:28:11;;;;;;;0.00;0.00;;;4.40;99.90;;;;;;5064367;28;20152;-85
2020/12/28 03:30:55;;;;;;;0.00;0.00;;;4.30;99.90;;;;;;5070594;28;20051;-87
2020/12/28 03:33:39;;;;;;;0.00;0.00;;;4.30;99.90;;;;;;5070188;28;20055;-86
2020/12/28 03:36:23;;;;;;;0.00;0.00;;;4.30;99.90;;;;;;5070362;28;20040;-85
2020/12/28 03:39:07;;;;;;;0.00;0.00;;;4.30;99.90;;;;;;5070938;28;20496;-85
2020/12/28 03:41:51;;;;;;;0.00;0.00;;;4.30;99.90;;;;;;5075277;28;20059;-85
2020/12/28 03:44:39;;;;;;;0.05;0.05;;;4.30;99.90;;;;;;5076047;28;20070;-85
2020/12/28 03:47:23;;;;;;;0.00;0.00;;;4.20;99.90;;;;;;5074339;28;20067;-85
2020/12/28 03:50:07;;;;;;;1.13;1.13;;;4.20;99.90;;;;;;5073557;28;20082;-85
2020/12/28 03:52:51;;;;;;;0.00;0.00;;;4.20;99.90;;;;;;5054615;28;20043;-85
2020/12/28 03:55:35;;;;;;;1.23;1.20;;;4.20;99.90;;;;;;5053499;28;20056;-85
2020/12/28 03:58:21;;;;;;;0.00;0.00;;;4.20;99.90;;;;;;5053756;28;20048;-85
2020/12/28 04:01:05;;;;;;;0.00;0.00;;;4.20;99.90;;;;;;5053513;28;20063;-85
2020/12/28 04:03:51;;;;;;;0.00;0.00;;;4.20;99.90;;;;;;5073207;28;20039;-85
2020/12/28 04:06:36;;;;;;;0.00;0.00;;;4.20;99.90;;;;;;5073590;28;20066;-85
2020/12/28 04:09:20;;;;;;;0.00;0.00;;;4.20;99.90;;;;;;5073443;28;20044;-84
2020/12/28 04:12:06;;;;;;;0.00;0.00;;;4.20;99.90;;;;;;5088422;28;20109;-85
2020/12/28 04:14:33;;;;;;;0.00;0.00;;;4.20;99.90;;;;;;5054163;28;20044;-84
2020/12/28 04:16:58;;;;;;;0.00;0.00;;;4.20;99.90;;;;;;5070591;28;20037;-85
2020/12/28 04:19:24;;;;;;;0.00;0.00;;;4.20;99.90;;;;;;5070072;28;20499;-85
2020/12/28 04:21:50;;;;;;;0.00;0.00;;;4.20;99.90;;;;;;5070504;28;20036;-85
2020/12/28 04:24:15;;;;;;;0.00;0.00;;;4.20;99.90;;;;;;5053898;28;20119;-85
2020/12/28 04:26:44;;;;;;;0.55;0.32;;;4.20;99.90;;;;;;5053635;28;20053;-85
2020/12/28 04:29:11;;;;;;;0.00;0.00;;;4.20;99.90;;;;;;5053473;28;20373;-84
2020/12/28 04:31:37;;;;;;;0.00;0.00;;;4.10;99.90;;;;;;5053543;28;20063;-84
2020/12/28 04:34:04;;;;;;;0.00;0.00;;;4.20;99.90;;;;;;5070059;28;20043;-85
2020/12/28 04:36:30;;;;;;;0.00;0.00;;;4.20;99.90;;;;;;5070303;28;20036;-84
2020/12/28 04:38:56;;;;;;;0.00;0.00;;;4.20;99.90;;;;;;5070150;28;20480;-85
2020/12/28 04:41:22;;;;;;;0.00;0.00;;;4.10;99.90;;;;;;5069892;28;20040;-85
2020/12/28 04:43:48;;;;;;;0.00;0.00;;;4.10;99.90;;;;;;5053208;28;20044;-84
2020/12/28 04:46:14;;;;;;;0.00;0.00;;;4.00;99.90;;;;;;5069928;28;20056;-84
2020/12/28 04:48:40;;;;;;;0.00;0.00;;;4.00;99.90;;;;;;5069792;28;20040;-85
2020/12/28 04:51:06;;;;;;;0.00;0.00;;;4.00;99.90;;;;;;5064743;28;20104;-84
2020/12/28 04:53:34;;;;;;;0.20;0.20;;;4.00;99.90;;;;;;5049861;28;20043;-85
2020/12/28 05:00:06;;;;;;;0.00;0.00;;;3.70;99.90;;;;;;5066692;28;20106;-84
2020/12/28 05:02:32;;;;;;;0.00;0.00;;;3.60;99.90;;;;;;5047974;28;20044;-84
2020/12/28 05:05:05;;;;;;;0.00;0.00;;;3.50;99.90;;;;;;5069866;28;20036;-85
2020/12/28 05:07:33;;;;;;;0.00;0.00;;;3.40;99.90;;;;;;5069725;28;20076;-85
2020/12/28 05:10:02;;;;;;;0.00;0.00;;;3.30;99.90;;;;;;5069236;28;20040;-85
2020/12/28 05:12:27;;;;;;;0.00;0.00;;;3.30;99.90;;;;;;5053098;28;20055;-85
2020/12/28 05:15:09;;;;;;;0.08;0.08;;;3.20;99.90;;;;;;5069513;28;20037;-85
2020/12/28 05:17:35;;;;;;;0.00;0.00;;;3.20;99.90;;;;;;5069803;28;20036;-86
2020/12/28 05:20:01;;;;;;;0.00;0.00;;;3.10;99.90;;;;;;5069180;28;20108;-85
2020/12/28 05:22:28;;;;;;;0.00;0.00;;;3.00;99.90;;;;;;5069641;28;20047;-86
2020/12/28 05:24:57;;;;;;;0.00;0.00;;;3.00;99.90;;;;;;5069226;28;20045;-85
2020/12/28 05:27:23;;;;;;;0.00;0.00;;;3.00;99.90;;;;;;5069400;28;20044;-85
2020/12/28 05:29:50;;;;;;;0.00;0.00;;;3.00;99.90;;;;;;5086959;28;20037;-85
2020/12/28 05:32:16;;;;;;;0.00;0.00;;;2.90;99.90;;;;;;5069326;28;20262;-85
2020/12/28 05:34:46;;;;;;;0.00;0.00;;;2.90;99.90;;;;;;5069256;28;20044;-85
2020/12/28 05:37:13;;;;;;;;;;;3.00;99.90;;;;;;5069543;28;20037;-84
2020/12/28 05:39:43;;;;;;;0.00;0.00;;;3.10;99.90;;;;;;5052263;28;19908;-85
2020/12/28 05:42:13;;;;;;;0.00;0.00;;;3.10;99.90;;;;;;5069044;28;20087;-85
2020/12/28 05:44:43;;;;;;;0.00;0.00;;;3.20;99.90;;;;;;5069107;28;20063;-85
2020/12/28 05:47:14;;;;;;;0.00;0.00;;;3.30;99.90;;;;;;5069301;28;20048;-83
2020/12/28 05:49:42;;;;;;;0.00;0.00;;;3.30;99.90;;;;;;5070133;28;20032;-84
2020/12/28 05:52:09;;;;;;;0.00;0.00;;;3.30;99.90;;;;;;5055608;28;20127;-84
2020/12/28 05:54:37;;;;;;;0.00;0.00;;;3.40;99.90;;;;;;5048714;28;20047;-84
2020/12/28 05:57:07;;;;;;;0.00;0.00;;;3.40;99.90;;;;;;5048803;28;20047;-84
2020/12/28 05:59:34;;;;;;;0.00;0.00;;;3.40;99.90;;;;;;5048398;28;20045;-84
2020/12/28 06:02:00;;;;;;;0.00;0.00;;;3.40;99.90;;;;;;5055369;28;20041;-84
2020/12/28 06:04:26;;;;;;;0.00;0.00;;;3.40;99.90;;;;;;5064413;28;20554;-85
2020/12/28 06:07:01;;;;;;;0.00;0.00;;;3.40;99.90;;;;;;5048270;28;20401;-83
2020/12/28 06:09:28;;;;;;;0.00;0.00;;;3.40;99.90;;;;;;5048127;28;20033;-86
2020/12/28 06:12:08;;;;;;;0.00;0.00;;;3.40;99.90;;;;;;5065091;28;20570;-85
2020/12/28 06:14:38;;;;;;;0.10;0.03;;;3.40;99.90;;;;;;5048171;28;20139;-85
2020/12/28 06:17:06;;;;;;;0.00;0.00;;;3.40;99.90;;;;;;5065298;28;20037;-86
2020/12/28 06:19:31;;;;;;;0.00;0.00;;;3.30;99.90;;;;;;5048070;28;20063;-89
2020/12/28 06:21:58;;;;;;;0.00;0.00;;;3.30;99.90;;;;;;5064947;28;20092;-85
2020/12/28 06:24:31;;;;;;;0.00;0.00;;;3.20;99.90;;;;;;5047752;28;20044;-85
2020/12/28 06:27:07;;;;;;;0.00;0.00;;;3.20;99.90;;;;;;5048072;28;20044;-85
2020/12/28 06:29:34;;;;;;;0.10;0.10;;;3.20;99.90;;;;;;5064852;28;20120;-85
2020/12/28 06:32:14;;;;;;;0.00;0.00;;;3.20;99.90;;;;;;5065190;28;20037;-85
2020/12/28 06:34:43;;;;;;;0.00;0.00;;;3.20;99.90;;;;;;5047896;28;20037;-85
2020/12/28 06:37:08;;;;;;;0.00;0.00;;;3.10;99.90;;;;;;5048054;28;20048;-85
2020/12/28 06:39:34;;;;;;;0.00;0.00;;;3.00;99.90;;;;;;5064639;28;20045;-85
2020/12/28 06:42:14;;;;;;;0.00;0.00;;;3.00;99.90;;;;;;5064789;28;20056;-85
2020/12/28 06:44:41;;;;;;;0.00;0.00;;;2.90;99.90;;;;;;5048032;28;20127;-85
2020/12/28 06:47:24;;;;;;;0.00;0.00;;;2.80;99.90;;;;;;5064546;28;20053;-85
2020/12/28 06:49:51;;;;;;;0.00;0.00;;;2.80;99.90;;;;;;5064143;28;20052;-85
2020/12/28 06:52:17;;;;;;;0.00;0.00;;;2.70;99.90;;;;;;5053294;28;20094;-87
2020/12/28 06:54:44;;;;;;;0.00;0.00;;;2.60;99.90;;;;;;5047731;28;20069;-85
2020/12/28 06:57:10;;;;;;;0.00;0.00;;;2.50;99.90;;;;;;5031607;28;20041;-85
2020/12/28 06:59:39;;;;;;;0.00;0.00;;;2.40;99.90;;;;;;5047413;28;20057;-85
2020/12/28 07:02:07;;;;;;;0.10;0.10;;;2.40;99.90;;;;;;5047823;28;20033;-85
2020/12/28 07:04:34;;;;;;;0.47;0.47;;;2.30;99.90;;;;;;5031326;28;20041;-85
2020/12/28 07:07:02;;;;;;;0.00;0.00;;;2.20;99.90;;;;;;5031271;28;20056;-85
2020/12/28 07:09:27;;;;;;;0.00;0.00;;;2.20;99.90;;;;;;5047730;28;20044;-84
2020/12/28 07:11:53;;;;;;;0.00;0.00;;;2.00;99.90;;;;;;5047775;28;20033;-85
2020/12/28 07:14:20;;;;;;;0.00;0.00;;;1.90;99.90;;;;;;5049154;28;20037;-85
2020/12/28 07:16:53;;;;;;;0.00;0.00;;;1.90;99.90;;;;;;5035180;28;20056;-85
2020/12/28 07:19:19;;;;;;;0.00;0.00;;;1.90;99.90;;;;;;5051301;28;20037;-85
2020/12/28 07:21:44;;;;;;;0.00;0.00;;;1.90;99.90;;;;;;5034822;28;20071;-85
2020/12/28 07:24:10;;;;;;;0.00;0.00;;;1.90;99.90;;;;;;5051337;28;20041;-85
2020/12/28 07:26:36;;;;;;;0.00;0.00;;;1.90;99.90;;;;;;5051210;28;20045;-86
2020/12/28 07:29:13;;;;;;;0.00;0.00;;;1.80;99.90;;;;;;5051324;28;20037;-85
2020/12/28 07:31:40;;;;;;;0.00;0.00;;;1.90;99.90;;;;;;5051156;28;20041;-86
2020/12/28 07:34:06;;;;;;;0.00;0.00;;;1.90;99.90;;;;;;5034664;28;20060;-86
2020/12/28 07:36:34;;;;;;;0.00;0.00;;;1.90;99.90;;;;;;5051380;28;20037;-84
2020/12/28 07:39:01;;;;;;;0.00;0.00;;;1.90;99.90;;;;;;5050874;28;20068;-85
2020/12/28 07:41:27;;;;;;;0.00;0.00;;;2.00;99.90;;;;;;5034551;28;20071;-85
2020/12/28 07:43:57;;;;;;;0.00;0.00;;;2.00;99.90;;;;;;5051114;28;20041;-85
2020/12/28 07:46:40;;;;;;;0.00;0.00;;;2.00;99.90;;;;;;5050985;28;20103;-85
2020/12/28 07:49:25;;;;;;;0.00;0.00;;;2.10;99.90;;;;;;5051198;28;20112;-85
2020/12/28 07:52:06;;;;;;;0.00;0.00;;;2.20;99.90;;;;;;5058152;28;20037;-85
2020/12/28 07:54:57;;;;;;;0.00;0.00;;;2.20;99.90;;;;;;5069817;28;20094;-86
2020/12/28 07:57:49;;;;;;;0.00;0.00;;;2.30;99.90;;;;;;5033190;28;20064;-85
2020/12/28 08:00:17;;;;;;;0.00;0.00;;;2.30;99.90;;;;;;4993916;28;20045;-85
2020/12/28 08:03:05;;;;;;;0.00;0.00;;;2.40;99.90;;;;;;5066879;28;20029;-85
2020/12/28 08:05:34;;;;;;;0.00;0.00;;;2.40;99.90;;;;;;5070414;28;20044;-85
2020/12/28 08:08:00;;;;;;;0.00;0.00;;;2.50;99.90;;;;;;5069804;28;20055;-85
2020/12/28 08:10:25;;;;;;;0.00;0.00;;;2.50;99.90;;;;;;5052755;28;20037;-85
2020/12/28 08:12:59;;;;;;;0.00;0.00;;;2.50;99.90;;;;;;5070072;28;20041;-85
2020/12/28 08:15:32;;;;;;;0.00;0.00;;;2.60;99.90;;;;;;5070066;28;20055;-85
2020/12/28 08:18:08;;;;;;;0.00;0.00;;;2.60;99.90;;;;;;5070010;28;20047;-85
2020/12/28 08:20:34;;;;;;;0.00;0.00;;;2.60;99.90;;;;;;5069483;28;20047;-85
2020/12/28 08:23:00;;;;;;;0.00;0.00;;;2.60;99.90;;;;;;5069753;28;20033;-85
2020/12/28 08:25:31;;;;;;;0.00;0.00;;;2.60;99.90;;;;;;5068775;28;20117;-85
2020/12/28 08:27:58;;;;;;;0.00;0.00;;;2.70;99.90;;;;;;5052792;28;20056;-85
2020/12/28 08:30:28;;;;;;;0.00;0.00;;;2.70;99.90;;;;;;5056401;28;20041;-85
2020/12/28 08:32:59;;;;;;;0.00;0.00;;;2.80;99.90;;;;;;5033104;28;20072;-85
2020/12/28 08:35:25;;;;;;;0.00;0.00;;;2.80;99.90;;;;;;5033075;28;20044;-85
2020/12/28 08:37:52;;;;;;;0.00;0.00;;;2.80;99.90;;;;;;5033122;28;20037;-86
2020/12/28 08:40:23;;;;;;;0.00;0.00;;;2.80;99.90;;;;;;5032776;28;20037;-85
2020/12/28 08:42:57;;;;;;;0.00;0.00;;;2.90;99.90;;;;;;5032982;28;20037;-85
2020/12/28 08:45:27;;;;;;;0.00;0.00;;;3.00;99.90;;;;;;5032762;28;20076;-85
2020/12/28 08:47:59;;;;;;;0.00;0.00;;;3.10;99.90;;;;;;5032557;28;20127;-84
2020/12/28 08:50:33;;;;;;;0.00;0.00;;;3.10;99.90;;;;;;5032771;28;20037;-85
2020/12/28 08:52:58;;;;;;;0.00;0.00;;;3.20;99.90;;;;;;5013148;28;20101;-85
2020/12/28 08:55:24;;;;;;;0.00;0.00;;;3.30;99.90;;;;;;5040630;28;20041;-85
2020/12/28 08:57:59;;;;;;;0.00;0.00;;;3.40;99.90;;;;;;5032677;28;20076;-84
2020/12/28 09:00:26;;;;;;;0.00;0.00;;;3.40;99.90;;;;;;5048466;28;20056;-85
2020/12/28 09:02:59;;;;;;;0.00;0.00;;;3.50;99.90;;;;;;5048627;28;20075;-85
2020/12/28 09:05:29;;;;;;;0.00;0.00;;;3.70;99.90;;;;;;5047003;28;20092;-85
2020/12/28 09:07:54;;;;;;;0.00;0.00;;;3.70;99.90;;;;;;5032083;28;20075;-85
2020/12/28 09:10:20;;;;;;;0.00;0.00;;;3.60;99.90;;;;;;5032108;28;20033;-87
2020/12/28 09:12:46;;;;;;;0.00;0.00;;;3.60;99.90;;;;;;5032345;28;20037;-86
2020/12/28 09:15:12;;;;;;;0.00;0.00;;;3.60;99.90;;;;;;5048534;28;20033;-85
2020/12/28 09:17:38;;;;;;;0.30;0.30;;;3.60;99.90;;;;;;5032209;28;20048;-85
2020/12/28 09:20:05;;;;;;;0.00;0.00;;;3.60;99.90;;;;;;5032084;28;20477;-84
2020/12/28 09:22:31;;;;;;;0.00;0.00;;;3.80;99.90;;;;;;5032031;28;20040;-84
2020/12/28 09:24:57;;;;;;;0.00;0.00;;;3.90;99.90;;;;;;5031891;28;20048;-86
2020/12/28 09:27:22;;;;;;;0.00;0.00;;;3.90;99.90;;;;;;5025613;28;20053;-87
2020/12/28 09:29:48;;;;;;;0.00;0.00;;;3.90;99.90;;;;;;5026140;28;20101;-87
2020/12/28 09:32:14;;;;;;;0.00;0.00;;;3.80;99.90;;;;;;5056276;28;20060;-85
2020/12/28 09:34:39;;;;;;;0.00;0.00;;;3.80;99.90;;;;;;5029254;28;20061;-85
2020/12/28 09:37:07;;;;;;;0.00;0.00;;;3.90;99.90;;;;;;5047983;28;20105;-84
2020/12/28 09:39:33;;;;;;;0.00;0.00;;;3.90;99.90;;;;;;5045800;28;20485;-85
2020/12/28 09:41:59;;;;;;;0.00;0.00;;;3.90;99.90;;;;;;5036531;28;20036;-85
2020/12/28 09:44:25;;;;;;;0.00;0.00;;;3.90;99.90;;;;;;5039920;28;20052;-85
2020/12/28 09:46:52;;;;;;;0.00;0.00;;;4.00;99.90;;;;;;5025155;28;20049;-85
2020/12/28 09:49:19;;;;;;;0.00;0.00;;;4.00;99.90;;;;;;5039827;28;20086;-85
2020/12/28 09:51:46;;;;;;;0.00;0.00;;;4.00;99.90;;;;;;5043217;28;20060;-86
2020/12/28 09:54:12;;;;;;;0.00;0.00;;;4.00;99.90;;;;;;5028447;28;20044;-84
2020/12/28 09:56:37;;;;;;;0.00;0.00;;;4.00;99.90;;;;;;5030519;28;20108;-84
2020/12/28 09:59:03;;;;;;;0.00;0.00;;;4.00;99.90;;;;;;5030451;28;20079;-84
2020/12/28 10:01:29;;;;;;;0.00;0.00;;;4.00;99.90;;;;;;5027027;28;20043;-84
2020/12/28 10:03:57;;;;;;;0.00;0.00;;;4.10;99.90;;;;;;5030090;28;21199;-84
2020/12/28 10:06:31;;;;;;;0.00;0.00;;;4.10;99.90;;;;;;5029817;28;20040;-83
2020/12/28 10:08:58;;;;;;;0.00;0.00;;;4.10;99.90;;;;;;5037809;28;20044;-85
2020/12/28 10:11:24;;;;;;;0.00;0.00;;;4.20;99.90;;;;;;5032065;28;20033;-83
2020/12/28 10:13:50;;;;;;;0.00;0.00;;;4.30;99.90;;;;;;5031498;28;20047;-83
2020/12/28 10:16:23;;;;;;;15.65;14.30;;;4.20;99.90;;;;;;5024569;28;20041;-82
2020/12/28 10:18:50;;;;;;;0.00;0.00;;;4.20;99.90;;;;;;5029188;28;20056;-83
2020/12/28 10:21:16;;;;;;;0.00;0.00;;;4.20;99.90;;;;;;5029957;28;20040;-85
2020/12/28 10:23:44;;;;;;;0.00;0.00;;;4.20;99.90;;;;;;5045637;28;20120;-82
2020/12/28 10:26:19;;;;;;;0.00;0.00;;;4.20;99.90;;;;;;5031791;28;20458;-85
2020/12/28 10:28:45;;;;;;;0.00;0.00;;;4.20;99.90;;;;;;5041342;28;20532;-84
2020/12/28 10:31:12;;;;;;;0.00;0.00;;;4.20;99.90;;;;;;5027372;28;20037;-84
2020/12/28 10:33:39;;;;;;;0.00;0.00;;;4.30;99.90;;;;;;5043857;28;20048;-84
2020/12/28 10:36:06;;;;;;;0.00;0.00;;;4.50;99.90;;;;;;5046641;28;21247;-82
2020/12/28 10:38:32;;;;;;;0.00;0.00;;;4.40;99.90;;;;;;5038692;28;20104;-84
2020/12/28 10:40:57;;;;;;;0.00;0.00;;;4.50;99.90;;;;;;5025896;28;20033;-85
2020/12/28 10:43:26;;;;;;;0.00;0.00;;;4.70;99.90;;;;;;5029846;28;20047;-85
2020/12/28 10:45:52;;;;;;;0.00;0.00;;;4.70;99.90;;;;;;5031165;28;20059;-85
2020/12/28 10:48:17;;;;;;;0.00;0.00;;;4.60;99.90;;;;;;5024992;28;20046;-85
2020/12/28 10:50:43;;;;;;;0.00;0.00;;;4.60;99.90;;;;;;5034112;28;20111;-84
2020/12/28 10:53:10;;;;;;;0.00;0.00;;;4.60;99.90;;;;;;5032157;28;20044;-84
2020/12/28 10:55:36;;;;;;;0.00;0.00;;;4.60;99.90;;;;;;5035248;28;20048;-84
2020/12/28 10:58:02;;;;;;;0.00;0.00;;;4.50;99.90;;;;;;5034008;28;20041;-84
2020/12/28 11:00:27;;;;;;;0.00;0.00;;;4.50;99.90;;;;;;5035192;28;20118;-84
2020/12/28 11:02:53;;;;;;;0.00;0.00;;;4.50;99.90;;;;;;5038925;28;20064;-84
2020/12/28 11:05:18;;;;;;;0.00;0.00;;;4.40;99.90;;;;;;5033667;28;20045;-86
2020/12/28 11:07:44;;;;;;;0.00;0.00;;;4.40;99.90;;;;;;5033763;28;20052;-85
2020/12/28 11:10:10;;;;;;;0.00;0.00;;;4.40;99.90;;;;;;5047816;28;20535;-83
2020/12/28 11:12:35;;;;;;;0.00;0.00;;;4.40;99.90;;;;;;5033338;28;20544;-84
2020/12/28 11:15:01;;;;;;;0.00;0.00;;;4.40;99.90;;;;;;5034282;28;20045;-85
2020/12/28 11:17:26;;;;;;;0.00;0.00;;;4.40;99.90;;;;;;5050632;28;20037;-85
2020/12/28 11:19:52;;;;;;;0.00;0.00;;;4.50;99.90;;;;;;5067513;28;20029;-84
2020/12/28 11:22:17;;;;;;;0.00;0.00;;;4.50;99.90;;;;;;5032823;28;20069;-84
2020/12/28 11:24:43;;;;;;;0.00;0.00;;;4.50;99.90;;;;;;5033616;28;20029;-86
2020/12/28 11:27:09;;;;;;;0.00;0.00;;;4.50;99.90;;;;;;5033772;28;20108;-84
2020/12/28 11:29:34;;;;;;;0.00;0.00;;;4.60;99.90;;;;;;5033294;28;20545;-84
2020/12/28 11:32:00;;;;;;;0.00;0.00;;;4.70;99.90;;;;;;5033038;28;20036;-85
2020/12/28 11:34:25;;;;;;;0.00;0.00;;;4.70;99.90;;;;;;5033607;28;20105;-86
2020/12/28 11:36:51;;;;;;;0.00;0.00;;;4.70;99.90;;;;;;5048344;28;20026;-85
2020/12/28 11:39:16;;;;;;;0.00;0.00;;;4.80;99.90;;;;;;5031346;28;20036;-86
2020/12/28 11:41:42;;;;;;;0.00;0.00;;;4.80;99.90;;;;;;5034676;28;20040;-87
2020/12/28 11:44:10;;;;;;;0.00;0.00;;;4.80;99.90;;;;;;5034239;28;20041;-84
2020/12/28 11:46:38;;;;;;;0.00;0.00;;;4.90;99.90;;;;;;5034255;28;20076;-84
2020/12/28 11:49:03;;;;;;;0.00;0.00;;;4.90;99.90;;;;;;5049752;28;20063;-84
2020/12/28 11:51:29;;;;;;;0.00;0.00;;;4.90;99.90;;;;;;5033803;28;20034;-85
2020/12/28 11:54:21;;;;;;;0.00;0.00;;;4.80;99.90;;;;;;5034029;28;20052;-85
2020/12/28 11:56:47;;;;;;;0.00;0.00;;;4.80;99.90;;;;;;4993695;28;20046;-85
2020/12/28 11:59:13;;;;;;;0.00;0.00;;;4.80;99.90;;;;;;5009937;28;20101;-83
2020/12/28 12:01:39;;;;;;;11.98;9.32;;;4.70;99.90;;;;;;5023758;28;20061;-85
2020/12/28 12:04:10;;;;;;;0.00;0.00;;;4.80;99.90;;;;;;5006042;28;20069;-84
2020/12/28 12:06:35;;;;;;;0.00;0.00;;;4.80;99.90;;;;;;5010054;28;20041;-85
2020/12/28 12:09:14;;;;;;;0.00;0.00;;;4.80;99.90;;;;;;4999081;28;20061;-85
2020/12/28 12:11:45;;;;;;;0.00;0.00;;;4.80;99.90;;;;;;4998720;28;20038;-85
2020/12/28 12:14:12;;;;;;;0.00;0.00;;;4.80;99.90;;;;;;5005923;28;20042;-85
2020/12/28 12:16:38;;;;;;;0.00;0.00;;;4.80;99.90;;;;;;5009767;28;20052;-85
2020/12/28 12:19:04;;;;;;;0.00;0.00;;;4.80;99.90;;;;;;4993424;28;20065;-85
2020/12/28 12:21:30;;;;;;;0.00;0.00;;;4.80;99.90;;;;;;4993375;28;20450;-85
2020/12/28 12:24:02;;;;;;;0.00;0.00;;;4.80;99.90;;;;;;4993357;28;20044;-85
2020/12/28 12:26:28;;;;;;;0.00;0.00;;;4.80;99.90;;;;;;4993228;28;20041;-85
2020/12/28 12:28:54;;;;;;;0.00;0.00;;;4.80;99.90;;;;;;4992866;28;20045;-85
2020/12/28 12:31:20;;;;;;;0.00;0.00;;;4.80;99.90;;;;;;5007456;28;20041;-85
2020/12/28 12:33:50;;;;;;;0.00;0.00;;;4.80;99.90;;;;;;5013801;28;20052;-85
2020/12/28 12:36:16;;;;;;;0.00;0.00;;;4.80;99.90;;;;;;5033514;28;20078;-85
2020/12/28 12:38:42;;;;;;;0.00;0.00;;;4.80;99.90;;;;;;5033140;28;20085;-86
2020/12/28 12:41:07;;;;;;;0.00;0.00;;;4.80;99.90;;;;;;5033043;28;20033;-85
2020/12/28 12:43:33;;;;;;;0.00;0.00;;;4.80;99.90;;;;;;5046322;28;20067;-86
2020/12/28 12:45:59;;;;;;;0.00;0.00;;;4.80;99.90;;;;;;5032174;28;20374;-86
2020/12/28 12:48:24;;;;;;;0.00;0.00;;;4.80;99.90;;;;;;5031987;28;20056;-86
2020/12/28 12:50:52;;;;;;;0.00;0.00;;;4.90;99.90;;;;;;5031552;28;20101;-85
2020/12/28 12:53:18;;;;;;;0.00;0.00;;;4.90;99.90;;;;;;5029223;28;20037;-86
2020/12/28 12:55:44;;;;;;;0.00;0.00;;;5.00;99.90;;;;;;5032276;28;20037;-85
2020/12/28 12:58:09;;;;;;;0.00;0.00;;;5.10;99.90;;;;;;5032034;28;20064;-85
2020/12/28 13:00:35;;;;;;;0.00;0.00;;;5.10;99.90;;;;;;5031831;28;20043;-85
2020/12/28 13:03:01;;;;;;;0.00;0.00;;;5.20;99.90;;;;;;5046851;28;20041;-85
2020/12/28 13:05:27;;;;;;;0.00;0.00;;;5.30;99.90;;;;;;5032099;28;20036;-86
2020/12/28 13:07:52;;;;;;;0.05;0.05;;;5.40;99.90;;;;;;5031585;28;20072;-86
2020/12/28 13:10:18;;;;;;;0.00;0.00;;;5.50;99.90;;;;;;5032091;28;20059;-86
2020/12/28 13:12:44;;;;;;;0.00;0.00;;;5.60;99.90;;;;;;5036958;28;20049;-86
2020/12/28 13:15:09;;;;;;;0.00;0.00;;;5.60;99.90;;;;;;5031686;28;20048;-85